Time;durP1;ratioP1;P1;durP2;ratioP2;P2;SDS_P1;SDS_P2;PMS_P1;PMS_P2;Temp;Humidity;BMP_temperature;BMP_pressure;BME280_temperature;BME280_humidity;BME280_pressure;Samples;Min_cycle;Max_cycle;Signal;HPM_P1;HPM_P2
2021/09/17 00:01:06;;;;;;;;;;;;;;;27.77;37.57;100841.13;5139612;27;763;-43
2021/09/17 00:03:32;;;;;;;;;;;;;;;27.89;37.67;100839.66;5139940;27;739;-37
2021/09/17 00:05:57;;;;;;;;;;;;;;;28.02;37.39;100839.00;5139679;27;938;-35
2021/09/17 00:08:22;;;;;;;;;;;;;;;27.89;37.55;100834.25;5160273;27;931;-36
2021/09/17 00:10:47;;;;;;;;;;;;;;;27.91;38.00;100834.88;5159995;27;726;-38
2021/09/17 00:13:13;;;;;;;;;;;;;;;27.77;37.62;100833.88;5160726;27;793;-43
2021/09/17 00:15:38;;;;;;;;;;;;;;;27.89;37.62;100825.28;5159626;27;1909;-35
2021/09/17 00:18:03;;;;;;;;;;;;;;;27.85;37.71;100827.53;5160049;27;1270;-39
2021/09/17 00:20:32;;;;;;;;;;;;;;;27.79;37.59;100830.97;5159787;27;857;-37
2021/09/17 00:22:57;;;;;;;;;;;;;;;27.81;37.73;100835.16;5141838;27;1712;-38
2021/09/17 00:25:22;;;;;;;;;;;;;;;27.73;37.84;100829.84;5139462;27;786;-36
2021/09/17 00:27:48;;;;;;;;;;;;;;;27.77;37.79;100824.91;5139486;27;751;-41
2021/09/17 00:30:13;;;;;;;;;;;;;;;27.64;37.77;100820.97;5138541;27;826;-43
2021/09/17 00:32:38;;;;;;;;;;;;;;;27.68;38.37;100827.69;5138980;27;790;-36
2021/09/17 00:35:07;;;;;;;;;;;;;;;27.69;37.98;100818.59;5139266;27;755;-36
2021/09/17 00:37:32;;;;;;;;;;;;;;;27.78;37.72;100821.19;5145175;27;1975;-36
2021/09/17 00:39:58;;;;;;;;;;;;;;;27.63;38.00;100814.72;5159607;27;822;-36
2021/09/17 00:42:23;;;;;;;;;;;;;;;27.81;37.64;100815.41;5159945;27;880;-38
2021/09/17 00:44:48;;;;;;;;;;;;;;;27.63;37.84;100809.31;5159054;27;754;-34
2021/09/17 00:47:13;;;;;;;;;;;;;;;27.70;37.80;100804.03;5159535;27;826;-41
2021/09/17 00:49:39;;;;;;;;;;;;;;;27.66;37.57;100802.69;5159704;27;1332;-37
2021/09/17 00:52:04;;;;;;;;;;;;;;;27.77;37.73;100798.72;5149037;27;969;-42
2021/09/17 00:54:33;;;;;;;;;;;;;;;27.60;37.81;100800.72;5138283;27;748;-41
2021/09/17 00:57:02;;;;;;;;;;;;;;;27.64;37.90;100799.34;5120480;27;1905;-42
2021/09/17 00:59:27;;;;;;;;;;;;;;;27.60;37.98;100801.56;5138775;27;850;-34
2021/09/17 01:01:53;;;;;;;;;;;;;;;27.71;38.01;100799.47;5138018;27;1159;-35
2021/09/17 01:04:18;;;;;;;;;;;;;;;27.85;37.33;100795.09;5138642;27;775;-35
2021/09/17 01:06:43;;;;;;;;;;;;;;;27.61;37.90;100794.31;5137787;27;993;-39
2021/09/17 01:09:08;;;;;;;;;;;;;;;27.79;37.73;100785.88;5119304;27;975;-37
2021/09/17 01:11:34;;;;;;;;;;;;;;;27.70;38.03;100795.09;5138343;27;822;-41
2021/09/17 01:13:59;;;;;;;;;;;;;;;27.73;37.86;100792.84;5138103;27;771;-40
2021/09/17 01:16:24;;;;;;;;;;;;;;;27.71;37.82;100780.56;5138117;27;1962;-34
2021/09/17 01:18:52;;;;;;;;;;;;;;;27.73;37.91;100773.09;5138629;27;791;-43
2021/09/17 01:21:18;;;;;;;;;;;;;;;27.56;38.24;100767.84;5140090;27;1644;-42
2021/09/17 01:23:43;;;;;;;;;;;;;;;27.75;38.11;100760.22;5137792;27;839;-43
2021/09/17 01:26:09;;;;;;;;;;;;;;;27.68;37.92;100770.06;5138403;27;783;-34
2021/09/17 01:28:34;;;;;;;;;;;;;;;27.69;38.19;100766.38;5138302;27;826;-43
2021/09/17 01:30:59;;;;;;;;;;;;;;;27.69;37.99;100759.13;5138006;27;506;-44
2021/09/17 01:33:25;;;;;;;;;;;;;;;27.94;37.88;100758.84;5137607;27;1537;-35
2021/09/17 01:35:59;;;;;;;;;;;;;;;27.58;38.10;100754.13;5137608;27;1972;-36
2021/09/17 01:38:25;;;;;;;;;;;;;;;27.86;37.74;100756.22;5153357;27;1052;-45
2021/09/17 01:40:50;;;;;;;;;;;;;;;27.70;37.80;100751.84;5158787;27;882;-35
2021/09/17 01:43:16;;;;;;;;;;;;;;;27.62;38.52;100747.34;5158602;27;838;-44
2021/09/17 01:45:47;;;;;;;;;;;;;;;27.53;38.19;100745.78;5158128;27;791;-43
2021/09/17 01:48:16;;;;;;;;;;;;;;;27.67;38.24;100738.69;5158335;27;1132;-44
2021/09/17 01:50:41;;;;;;;;;;;;;;;27.63;38.22;100741.75;5158219;27;899;-44
2021/09/17 01:53:07;;;;;;;;;;;;;;;27.62;38.26;100740.09;5138692;27;961;-36
2021/09/17 01:55:32;;;;;;;;;;;;;;;27.73;37.98;100737.94;5137537;27;1909;-35
2021/09/17 01:57:57;;;;;;;;;;;;;;;27.70;38.01;100741.03;5137575;27;858;-35
2021/09/17 02:00:23;;;;;;;;;;;;;;;27.66;38.24;100737.00;5136902;27;847;-42
2021/09/17 02:02:50;;;;;;;;;;;;;;;27.64;38.43;100742.59;5137117;27;832;-39
2021/09/17 02:05:15;;;;;;;;;;;;;;;27.69;38.13;100740.22;5137511;27;837;-43
2021/09/17 02:07:40;;;;;;;;;;;;;;;27.75;37.88;100730.50;5137100;27;950;-34
2021/09/17 02:10:09;;;;;;;;;;;;;;;27.71;38.34;100732.72;5137030;27;825;-34
2021/09/17 02:12:34;;;;;;;;;;;;;;;27.66;38.25;100732.41;5137080;27;746;-39
2021/09/17 02:14:59;;;;;;;;;;;;;;;27.69;38.52;100724.00;5136986;27;834;-35
2021/09/17 02:17:26;;;;;;;;;;;;;;;27.63;38.22;100725.53;5137359;27;1913;-39
2021/09/17 02:19:51;;;;;;;;;;;;;;;27.77;38.01;100717.66;5137287;27;739;-34
2021/09/17 02:22:16;;;;;;;;;;;;;;;27.59;38.18;100721.53;5139316;27;1573;-37
2021/09/17 02:24:42;;;;;;;;;;;;;;;27.71;38.47;100713.81;5136252;27;759;-36
2021/09/17 02:27:07;;;;;;;;;;;;;;;27.67;38.11;100723.31;5137093;27;774;-42
2021/09/17 02:29:32;;;;;;;;;;;;;;;27.72;38.38;100720.91;5136917;27;771;-39
2021/09/17 02:31:58;;;;;;;;;;;;;;;27.71;38.03;100715.69;5136939;27;791;-41
2021/09/17 02:34:23;;;;;;;;;;;;;;;27.77;38.13;100714.94;5136484;27;963;-36
2021/09/17 02:36:48;;;;;;;;;;;;;;;27.77;37.93;100704.13;5137570;27;1905;-35
2021/09/17 02:39:15;;;;;;;;;;;;;;;27.84;38.07;100701.50;5157455;27;770;-44
2021/09/17 02:41:40;;;;;;;;;;;;;;;27.80;37.94;100709.16;5157408;27;882;-36
2021/09/17 02:44:09;;;;;;;;;;;;;;;27.74;37.99;100704.50;5156647;27;830;-36
2021/09/17 02:46:34;;;;;;;;;;;;;;;27.89;37.78;100706.34;5157256;27;834;-44
2021/09/17 02:49:02;;;;;;;;;;;;;;;27.63;39.10;100694.97;5157523;27;1176;-36
2021/09/17 02:51:28;;;;;;;;;;;;;;;27.70;38.67;100700.50;5151388;27;936;-37
2021/09/17 02:53:53;;;;;;;;;;;;;;;27.72;38.78;100702.00;5136174;27;755;-28
2021/09/17 02:56:18;;;;;;;;;;;;;;;28.13;37.75;100702.44;5136658;27;1913;-33
2021/09/17 02:58:43;;;;;;;;;;;;;;;27.78;39.42;100705.78;5136140;27;791;-41
2021/09/17 03:01:09;;;;;;;;;;;;;;;27.19;43.20;100700.22;5135778;27;827;-30
2021/09/17 03:03:34;;;;;;;;;;;;;;;26.89;44.55;100703.66;5155421;27;953;-33
2021/09/17 03:05:59;;;;;;;;;;;;;;;26.78;44.84;100696.84;5154408;27;941;-34
2021/09/17 03:08:25;;;;;;;;;;;;;;;26.85;44.94;100691.56;5136467;27;806;-29
2021/09/17 03:10:52;;;;;;;;;;;;;;;26.62;45.45;100691.56;5136462;27;806;-28
2021/09/17 03:13:20;;;;;;;;;;;;;;;26.56;46.14;100692.31;5135509;27;838;-28
2021/09/17 03:15:45;;;;;;;;;;;;;;;26.44;46.20;100681.09;5135809;27;1969;-42
2021/09/17 03:18:11;;;;;;;;;;;;;;;26.44;46.05;100681.94;5135905;28;858;-35
2021/09/17 03:20:38;;;;;;;;;;;;;;;26.37;45.93;100679.13;5136174;27;1435;-37
2021/09/17 03:23:03;;;;;;;;;;;;;;;26.45;46.48;100680.91;5138378;27;1020;-41
2021/09/17 03:25:29;;;;;;;;;;;;;;;26.40;46.50;100680.63;5135817;28;836;-36
2021/09/17 03:27:54;;;;;;;;;;;;;;;26.35;45.71;100683.00;5135697;28;882;-41
2021/09/17 03:30:19;;;;;;;;;;;;;;;26.39;45.88;100687.84;5136101;28;822;-43
2021/09/17 03:32:45;;;;;;;;;;;;;;;26.39;46.46;100687.03;5136372;28;751;-33
2021/09/17 03:35:10;;;;;;;;;;;;;;;26.37;46.57;100686.38;5135903;28;775;-32
2021/09/17 03:37:35;;;;;;;;;;;;;;;26.28;45.30;100688.25;5143703;27;1999;-46
2021/09/17 03:40:01;;;;;;;;;;;;;;;26.15;45.78;100694.22;5156786;27;714;-35
2021/09/17 03:42:28;;;;;;;;;;;;;;;26.21;46.46;100696.22;5156470;27;833;-34
2021/09/17 03:44:54;;;;;;;;;;;;;;;26.15;47.00;100688.84;5156146;27;854;-50
2021/09/17 03:47:19;;;;;;;;;;;;;;;26.23;46.63;100686.09;5156393;27;751;-40
2021/09/17 03:49:44;;;;;;;;;;;;;;;26.13;46.85;100688.16;5156650;27;1070;-36
2021/09/17 03:52:09;;;;;;;;;;;;;;;26.01;45.48;100685.03;5145188;27;956;-34
2021/09/17 03:54:35;;;;;;;;;;;;;;;25.45;45.47;100592.53;5135907;28;826;-35
2021/09/17 03:57:00;;;;;;;;;;;;;;;25.96;46.10;100679.34;5135226;28;1902;-42
2021/09/17 03:59:25;;;;;;;;;;;;;;;25.91;46.07;100677.16;5135409;28;854;-35
2021/09/17 04:01:51;;;;;;;;;;;;;;;26.17;45.63;100676.03;5139474;27;1026;-37
2021/09/17 04:04:16;;;;;;;;;;;;;;;26.52;41.47;100673.78;5156745;27;814;-41
2021/09/17 04:06:45;;;;;;;;;;;;;;;26.57;43.53;100684.03;5148378;27;891;-41
2021/09/17 04:09:10;;;;;;;;;;;;;;;27.16;42.77;100676.25;5135200;28;874;-35
2021/09/17 04:11:35;;;;;;;;;;;;;;;26.90;43.04;100680.19;5135799;27;826;-35
2021/09/17 04:14:01;;;;;;;;;;;;;;;26.67;43.43;100680.25;5139188;27;878;-34
2021/09/17 04:16:26;;;;;;;;;;;;;;;26.61;43.66;100685.34;5139230;27;1958;-33
2021/09/17 04:18:51;;;;;;;;;;;;;;;26.73;43.92;100684.91;5139480;27;767;-34
2021/09/17 04:21:16;;;;;;;;;;;;;;;26.35;45.19;100686.56;5141518;27;1748;-35
2021/09/17 04:23:42;;;;;;;;;;;;;;;26.17;46.37;100681.41;5139285;27;835;-36
2021/09/17 04:26:07;;;;;;;;;;;;;;;26.63;45.47;100679.75;5139529;27;767;-35
2021/09/17 04:28:32;;;;;;;;;;;;;;;26.79;44.19;100673.41;5138887;27;727;-41
2021/09/17 04:30:58;;;;;;;;;;;;;;;26.85;45.21;100685.31;5139358;27;790;-35
2021/09/17 04:33:23;;;;;;;;;;;;;;;26.84;45.01;100672.84;5139415;27;842;-34
2021/09/17 04:35:48;;;;;;;;;;;;;;;26.70;43.19;100675.31;5138533;27;1889;-35
2021/09/17 04:38:14;;;;;;;;;;;;;;;26.66;44.62;100676.69;5152099;27;986;-40
2021/09/17 04:40:39;;;;;;;;;;;;;;;26.49;44.61;100674.13;5160010;27;782;-35
2021/09/17 04:43:05;;;;;;;;;;;;;;;26.29;45.58;100677.28;5159533;27;882;-40
2021/09/17 04:45:30;;;;;;;;;;;;;;;26.72;45.75;100683.22;5159674;27;816;-34
2021/09/17 04:47:55;;;;;;;;;;;;;;;27.01;44.26;100687.88;5159026;27;842;-36
2021/09/17 04:50:20;;;;;;;;;;;;;;;26.70;45.99;100674.47;5158787;27;1554;-36
2021/09/17 04:52:47;;;;;;;;;;;;;;;27.02;45.01;100681.47;5143618;27;925;-37
2021/09/17 04:55:13;;;;;;;;;;;;;;;27.12;44.58;100680.34;5138523;27;844;-35
2021/09/17 04:57:38;;;;;;;;;;;;;;;26.98;44.68;100674.72;5158395;27;1972;-33
2021/09/17 05:00:04;;;;;;;;;;;;;;;27.16;45.45;100678.94;5159192;27;1079;-36
2021/09/17 05:02:29;;;;;;;;;;;;;;;27.18;45.53;100676.91;5160096;27;756;-40
2021/09/17 05:04:55;;;;;;;;;;;;;;;27.16;45.70;100675.44;5158647;27;871;-40
2021/09/17 05:07:20;;;;;;;;;;;;;;;27.31;44.57;100672.75;5146485;27;952;-35
2021/09/17 05:09:45;;;;;;;;;;;;;;;27.17;45.06;100672.53;5138349;27;815;-37
2021/09/17 05:12:11;;;;;;;;;;;;;;;27.06;45.72;100673.00;5138175;27;807;-38
2021/09/17 05:14:36;;;;;;;;;;;;;;;26.96;45.49;100673.25;5138213;27;851;-37
2021/09/17 05:17:01;;;;;;;;;;;;;;;27.01;46.00;100670.81;5138364;27;1905;-37
2021/09/17 05:19:26;;;;;;;;;;;;;;;27.01;45.59;100671.69;5137886;27;758;-37
2021/09/17 05:21:52;;;;;;;;;;;;;;;26.94;45.65;100668.03;5140843;27;1811;-35
2021/09/17 05:24:17;;;;;;;;;;;;;;;26.83;46.39;100673.84;5137601;27;843;-40
2021/09/17 05:26:42;;;;;;;;;;;;;;;26.67;46.23;100670.28;5137493;27;835;-41
2021/09/17 05:29:08;;;;;;;;;;;;;;;26.80;46.22;100663.41;5137929;27;810;-39
2021/09/17 05:31:33;;;;;;;;;;;;;;;26.90;45.87;100664.00;5138336;27;834;-35
2021/09/17 05:33:58;;;;;;;;;;;;;;;26.98;45.17;100668.47;5137840;27;799;-36
2021/09/17 05:36:23;;;;;;;;;;;;;;;27.00;45.26;100661.88;5137588;27;1905;-39
2021/09/17 05:38:49;;;;;;;;;;;;;;;26.81;44.90;100665.13;5156424;27;1071;-39
2021/09/17 05:41:15;;;;;;;;;;;;;;;26.43;45.38;100660.53;5157937;27;814;-42
2021/09/17 05:43:40;;;;;;;;;;;;;;;26.24;45.90;100668.88;5158272;27;768;-40
2021/09/17 05:46:05;;;;;;;;;;;;;;;26.72;44.83;100667.88;5158861;27;833;-40
2021/09/17 05:48:30;;;;;;;;;;;;;;;26.72;45.19;100664.34;5158100;27;1010;-40
2021/09/17 05:50:56;;;;;;;;;;;;;;;26.65;45.26;100670.47;5157470;27;972;-42
2021/09/17 05:53:21;;;;;;;;;;;;;;;26.56;44.64;100665.34;5137325;27;938;-43
2021/09/17 05:55:46;;;;;;;;;;;;;;;26.47;44.64;100667.25;5137270;27;1909;-38
2021/09/17 05:58:11;;;;;;;;;;;;;;;26.84;43.35;100675.53;5137383;27;820;-41
2021/09/17 06:00:37;;;;;;;;;;;;;;;26.55;44.19;100669.88;5137392;27;815;-37
2021/09/17 06:03:02;;;;;;;;;;;;;;;26.36;44.75;100665.81;5137612;27;768;-37
2021/09/17 06:05:27;;;;;;;;;;;;;;;26.19;44.09;100674.00;5137035;27;879;-36
2021/09/17 06:07:53;;;;;;;;;;;;;;;26.34;42.43;100675.94;5136951;27;938;-42
2021/09/17 06:10:19;;;;;;;;;;;;;;;26.25;43.11;100670.56;5137167;27;862;-38
2021/09/17 06:12:44;;;;;;;;;;;;;;;26.50;42.76;100669.56;5137132;27;833;-40
2021/09/17 06:15:10;;;;;;;;;;;;;;;26.43;42.22;100665.91;5137607;27;772;-38
2021/09/17 06:17:35;;;;;;;;;;;;;;;26.54;42.34;100673.59;5136876;27;1929;-42
2021/09/17 06:20:00;;;;;;;;;;;;;;;26.61;41.65;100673.72;5136847;27;787;-40
2021/09/17 06:22:25;;;;;;;;;;;;;;;26.65;41.20;100669.63;5139375;27;1636;-42
2021/09/17 06:24:51;;;;;;;;;;;;;;;26.86;41.11;100663.53;5136943;27;790;-35
2021/09/17 06:27:16;;;;;;;;;;;;;;;23.75;46.56;100665.50;5137196;27;802;-35
2021/09/17 06:29:41;;;;;;;;;;;;;;;22.58;49.39;100664.72;5136950;27;811;-40
2021/09/17 06:32:07;;;;;;;;;;;;;;;21.75;50.60;100662.00;5136502;27;755;-35
2021/09/17 06:34:32;;;;;;;;;;;;;;;24.36;46.77;100664.47;5136922;27;816;-36
2021/09/17 06:36:57;;;;;;;;;;;;;;;26.42;41.79;100662.41;5139118;27;1901;-35
2021/09/17 06:39:23;;;;;;;;;;;;;;;27.34;39.16;100665.06;5157551;27;771;-36
2021/09/17 06:41:49;;;;;;;;;;;;;;;27.77;38.36;100668.16;5157016;27;795;-37
2021/09/17 06:44:15;;;;;;;;;;;;;;;25.10;43.03;100657.41;5157144;27;784;-36
2021/09/17 06:46:40;;;;;;;;;;;;;;;22.86;48.84;100658.41;5157101;27;807;-36
2021/09/17 06:49:05;;;;;;;;;;;;;;;22.17;50.40;100656.31;5156929;27;1132;-36
2021/09/17 06:51:31;;;;;;;;;;;;;;;25.09;45.06;100654.91;5151511;27;1016;-36
2021/09/17 06:53:56;;;;;;;;;;;;;;;25.95;40.93;100543.75;5136481;27;854;-39
2021/09/17 06:56:21;;;;;;;;;;;;;;;27.46;39.12;100654.66;5136049;27;1968;-37
2021/09/17 06:58:46;;;;;;;;;;;;;;;26.86;40.89;100641.94;5136619;27;783;-35
2021/09/17 07:01:12;;;;;;;;;;;;;;;23.16;48.51;100655.44;5136324;27;1121;-34
2021/09/17 07:03:37;;;;;;;;;;;;;;;22.36;49.57;100642.75;5135967;27;732;-34
2021/09/17 07:06:02;;;;;;;;;;;;;;;22.07;53.08;100646.47;5136168;27;926;-41
2021/09/17 07:08:28;;;;;;;;;;;;;;;25.37;43.61;100649.09;5136179;27;803;-40
2021/09/17 07:10:53;;;;;;;;;;;;;;;26.90;40.19;100645.09;5135786;27;812;-35
2021/09/17 07:13:18;;;;;;;;;;;;;;;27.45;38.83;100652.13;5136030;27;779;-40
2021/09/17 07:15:44;;;;;;;;;;;;;;;24.29;45.32;100650.84;5136339;27;1971;-41
2021/09/17 07:18:09;;;;;;;;;;;;;;;22.61;49.24;100643.00;5136259;28;869;-36
2021/09/17 07:20:35;;;;;;;;;;;;;;;22.11;50.11;100641.66;5136215;27;1431;-37
2021/09/17 07:23:00;;;;;;;;;;;;;;;22.19;53.78;100633.72;5137945;27;910;-36
2021/09/17 07:25:26;;;;;;;;;;;;;;;25.54;43.27;100645.31;5135912;28;794;-41
2021/09/17 07:27:51;;;;;;;;;;;;;;;26.97;39.76;100640.66;5136150;28;723;-35
2021/09/17 07:30:17;;;;;;;;;;;;;;;26.07;41.58;100643.91;5136195;28;735;-35
2021/09/17 07:32:42;;;;;;;;;;;;;;;23.14;47.75;100633.31;5135864;28;836;-36
2021/09/17 07:35:07;;;;;;;;;;;;;;;22.11;49.63;100634.47;5135715;28;767;-38
2021/09/17 07:37:33;;;;;;;;;;;;;;;22.32;53.17;100638.69;5143807;27;1962;-35
2021/09/17 07:39:58;;;;;;;;;;;;;;;25.54;42.66;100631.03;5156518;27;782;-40
2021/09/17 07:42:23;;;;;;;;;;;;;;;26.93;40.00;100643.88;5156828;27;782;-39
2021/09/17 07:44:49;;;;;;;;;;;;;;;27.44;38.56;100640.50;5156613;27;798;-38
2021/09/17 07:47:14;;;;;;;;;;;;;;;25.15;43.05;100646.97;5157437;27;920;-38
2021/09/17 07:49:39;;;;;;;;;;;;;;;22.92;48.62;100641.69;5158850;27;1227;-34
2021/09/17 07:52:05;;;;;;;;;;;;;;;22.33;49.30;100642.22;5150541;27;985;-37
2021/09/17 07:54:30;;;;;;;;;;;;;;;22.69;53.27;100641.38;5139422;27;814;-34
2021/09/17 07:56:55;;;;;;;;;;;;;;;25.87;42.11;100640.81;5140085;27;1972;-38
2021/09/17 07:59:21;;;;;;;;;;;;;;;26.70;41.68;100639.41;5139852;27;767;-34
2021/09/17 08:01:46;;;;;;;;;;;;;;;23.12;48.30;100639.66;5139677;27;813;-37
2021/09/17 08:04:11;;;;;;;;;;;;;;;22.44;49.34;100641.16;5139740;27;790;-35
2021/09/17 08:06:37;;;;;;;;;;;;;;;22.16;49.75;100639.38;5139408;27;970;-33
2021/09/17 08:09:02;;;;;;;;;;;;;;;23.66;49.07;100642.28;5139985;27;771;-35
2021/09/17 08:11:27;;;;;;;;;;;;;;;26.17;41.56;100638.28;5139600;27;827;-34
2021/09/17 08:13:53;;;;;;;;;;;;;;;25.84;42.79;100633.09;5139143;27;803;-34
2021/09/17 08:16:18;;;;;;;;;;;;;;;22.86;49.25;100618.19;5139325;27;1906;-35
2021/09/17 08:18:45;;;;;;;;;;;;;;;22.44;49.93;100612.50;5139830;27;873;-34
2021/09/17 08:21:11;;;;;;;;;;;;;;;22.25;49.90;100614.34;5142005;27;1625;-34
2021/09/17 08:23:36;;;;;;;;;;;;;;;22.46;53.78;100601.63;5139837;27;818;-35
2021/09/17 08:26:03;;;;;;;;;;;;;;;25.74;42.59;100601.81;5138587;27;858;-34
2021/09/17 08:28:28;;;;;;;;;;;;;;;23.56;47.06;100605.66;5139612;27;846;-33
2021/09/17 08:30:55;;;;;;;;;;;;;;;22.57;49.39;100605.91;5139159;27;794;-38
2021/09/17 08:33:20;;;;;;;;;;;;;;;22.19;50.42;100601.56;5138673;27;884;-34
2021/09/17 08:35:46;;;;;;;;;;;;;;;22.13;50.57;100600.34;5140278;27;1905;-35
2021/09/17 08:38:11;;;;;;;;;;;;;;;22.01;50.82;100598.88;5150830;27;996;-38
2021/09/17 08:40:36;;;;;;;;;;;;;;;25.02;44.63;100600.91;5149954;27;1310;-39
2021/09/17 08:43:01;;;;;;;;;;;;;;;26.62;41.19;100599.84;5149298;27;1369;-36
2021/09/17 08:45:27;;;;;;;;;;;;;;;27.18;40.43;100601.31;5148784;27;1356;-39
2021/09/17 08:47:52;;;;;;;;;;;;;;;27.56;39.13;100599.50;5147741;27;1282;-36
2021/09/17 08:50:18;;;;;;;;;;;;;;;27.87;39.07;100601.97;5168485;27;1308;-37
2021/09/17 08:52:43;;;;;;;;;;;;;;;28.06;39.05;100594.22;5166640;27;1080;-36
2021/09/17 08:55:08;;;;;;;;;;;;;;;28.24;38.71;100593.75;5158227;27;1112;-35
2021/09/17 08:57:34;;;;;;;;;;;;;;;28.28;38.60;100587.97;5159222;27;1980;-40
2021/09/17 08:59:59;;;;;;;;;;;;;;;28.27;37.66;100575.47;5158387;27;1170;-36
2021/09/17 09:02:25;;;;;;;;;;;;;;;28.58;38.29;100582.38;5168539;27;1267;-40
2021/09/17 09:04:58;;;;;;;;;;;;;;;28.85;37.71;100572.59;5165669;27;1321;-40
2021/09/17 09:07:30;;;;;;;;;;;;;;;28.93;37.86;100578.88;5158729;27;960;-35
2021/09/17 09:09:55;;;;;;;;;;;;;;;28.59;32.91;100570.56;5159552;27;775;-41
2021/09/17 09:12:22;;;;;;;;;;;;;;;28.67;31.98;100562.28;5158655;27;882;-36
2021/09/17 09:14:48;;;;;;;;;;;;;;;28.58;31.95;100568.88;5166462;27;1187;-39
2021/09/17 09:17:13;;;;;;;;;;;;;;;28.46;31.35;100561.28;5158253;27;1979;-33
2021/09/17 09:19:38;;;;;;;;;;;;;;;28.60;32.44;100564.94;5160722;27;1066;-36
2021/09/17 09:22:04;;;;;;;;;;;;;;;28.86;34.60;100554.50;5143553;27;1338;-35
2021/09/17 09:24:29;;;;;;;;;;;;;;;28.99;36.07;100564.59;5158817;27;769;-35
2021/09/17 09:27:11;;;;;;;;;;;;;;;28.98;35.52;100549.34;5159050;27;822;-34
2021/09/17 09:29:37;;;;;;;;;;;;;;;29.15;35.75;100554.44;5158564;27;813;-35
2021/09/17 09:32:02;;;;;;;;;;;;;;;29.16;35.98;100543.38;5158406;27;762;-38
2021/09/17 09:34:46;;;;;;;;;;;;;;;29.23;36.05;100538.00;5159229;27;769;-35
2021/09/17 09:37:12;;;;;;;;;;;;;;;29.34;36.16;100542.81;5157914;27;1978;-37
2021/09/17 09:39:52;;;;;;;;;;;;;;;29.34;35.87;100542.81;5157494;27;1057;-36
2021/09/17 09:42:19;;;;;;;;;;;;;;;29.44;36.80;100534.34;5158276;27;798;-35
2021/09/17 09:44:46;;;;;;;;;;;;;;;29.51;36.09;100536.22;5159172;27;749;-39
2021/09/17 09:47:11;;;;;;;;;;;;;;;29.60;36.22;100532.31;5139863;27;1180;-40
2021/09/17 09:49:39;;;;;;;;;;;;;;;29.64;36.28;100528.16;5135946;27;1368;-37
2021/09/17 09:52:08;;;;;;;;;;;;;;;29.64;36.26;100524.59;5136980;27;957;-40
2021/09/17 09:54:34;;;;;;;;;;;;;;;29.68;36.97;100515.00;5137362;27;841;-40
2021/09/17 09:57:00;;;;;;;;;;;;;;;26.76;41.39;100507.28;5137747;27;1913;-39
2021/09/17 09:59:26;;;;;;;;;;;;;;;24.58;43.94;100519.59;5137623;27;862;-38
2021/09/17 10:01:52;;;;;;;;;;;;;;;23.87;45.81;100520.13;5137229;27;843;-33
2021/09/17 10:04:17;;;;;;;;;;;;;;;24.14;45.02;100518.94;5143085;27;1191;-34
2021/09/17 10:06:43;;;;;;;;;;;;;;;23.24;47.08;100515.94;5132497;27;933;-39
2021/09/17 10:09:09;;;;;;;;;;;;;;;23.02;47.75;100509.31;5118374;27;537;-36
2021/09/17 10:11:34;;;;;;;;;;;;;;;22.85;48.48;100504.72;5137034;27;795;-37
2021/09/17 10:14:00;;;;;;;;;;;;;;;22.66;51.15;100504.94;5137007;27;845;-38
2021/09/17 10:16:26;;;;;;;;;;;;;;;26.01;41.93;100501.75;5137034;27;1952;-38
2021/09/17 10:18:51;;;;;;;;;;;;;;;27.49;40.03;100510.25;5126065;27;858;-42
2021/09/17 10:21:35;;;;;;;;;;;;;;;28.22;39.18;100511.16;5134236;27;1319;-38
2021/09/17 10:24:18;;;;;;;;;;;;;;;28.59;38.22;100514.53;5136912;27;783;-36
2021/09/17 10:27:04;;;;;;;;;;;;;;;28.85;37.82;100520.31;5118674;27;1330;-36
2021/09/17 10:29:33;;;;;;;;;;;;;;;29.01;37.04;100493.97;5137397;27;856;-37
2021/09/17 10:32:00;;;;;;;;;;;;;;;29.14;37.06;100488.59;5136304;27;819;-38
2021/09/17 10:34:29;;;;;;;;;;;;;;;29.23;37.60;100474.88;5136620;27;737;-36
2021/09/17 10:36:55;;;;;;;;;;;;;;;29.09;37.95;100475.66;5135672;27;1963;-35
2021/09/17 10:39:20;;;;;;;;;;;;;;;29.12;37.98;100479.00;5136947;27;838;-39
2021/09/17 10:42:04;;;;;;;;;;;;;;;29.10;38.12;100471.06;5136419;27;757;-37
2021/09/17 10:44:29;;;;;;;;;;;;;;;29.14;37.86;100464.22;5136286;27;890;-35
2021/09/17 10:46:54;;;;;;;;;;;;;;;29.28;37.99;100458.84;5136637;27;759;-39
2021/09/17 10:49:19;;;;;;;;;;;;;;;29.28;37.98;100461.56;5135152;27;1077;-37
2021/09/17 10:51:45;;;;;;;;;;;;;;;29.24;38.42;100465.69;5135639;27;973;-35
2021/09/17 10:54:11;;;;;;;;;;;;;;;29.29;38.38;100463.22;5136200;27;779;-38
2021/09/17 10:57:06;;;;;;;;;;;;;;;29.27;38.27;100459.88;5136993;27;1913;-39
2021/09/17 10:59:40;;;;;;;;;;;;;;;29.19;38.60;100456.34;5122575;27;1169;-38
2021/09/17 11:02:07;;;;;;;;;;;;;;;29.17;39.11;100454.84;5136632;27;809;-36
2021/09/17 11:04:33;;;;;;;;;;;;;;;29.13;38.91;100454.41;5136405;27;848;-41
2021/09/17 11:07:17;;;;;;;;;;;;;;;29.24;38.43;100455.72;5135804;27;918;-35
2021/09/17 11:09:43;;;;;;;;;;;;;;;29.30;38.87;100446.75;5136130;27;863;-36
2021/09/17 11:12:16;;;;;;;;;;;;;;;29.27;38.46;100440.91;5136167;27;799;-38
2021/09/17 11:14:41;;;;;;;;;;;;;;;29.33;39.22;100429.25;5135487;27;791;-35
2021/09/17 11:17:06;;;;;;;;;;;;;;;29.34;38.37;100425.50;5136315;27;1956;-37
2021/09/17 11:19:32;;;;;;;;;;;;;;;29.34;38.48;100428.22;5135239;28;831;-38
2021/09/17 11:21:58;;;;;;;;;;;;;;;29.35;38.76;100416.34;5134538;27;1580;-38
2021/09/17 11:24:33;;;;;;;;;;;;;;;29.44;37.77;100417.81;5136407;28;845;-34
2021/09/17 11:26:59;;;;;;;;;;;;;;;29.44;37.72;100435.94;5136227;28;826;-34
2021/09/17 11:29:25;;;;;;;;;;;;;;;29.35;37.71;100427.16;5135763;28;770;-33
2021/09/17 11:31:57;;;;;;;;;;;;;;;29.33;38.17;100424.66;5136577;28;807;-35
2021/09/17 11:34:23;;;;;;;;;;;;;;;29.36;38.47;100422.59;5136397;28;783;-35
2021/09/17 11:36:58;;;;;;;;;;;;;;;29.43;38.10;100418.84;5135727;28;1902;-35
2021/09/17 11:39:27;;;;;;;;;;;;;;;29.40;38.48;100421.97;5136275;28;856;-34
2021/09/17 11:41:59;;;;;;;;;;;;;;;29.37;38.81;100427.81;5136222;28;783;-34
2021/09/17 11:44:51;;;;;;;;;;;;;;;29.45;38.02;100419.47;5135383;28;826;-40
2021/09/17 11:47:22;;;;;;;;;;;;;;;28.44;40.47;100402.91;5136074;28;806;-40
2021/09/17 11:49:47;;;;;;;;;;;;;;;24.27;47.22;100399.38;5147647;27;1290;-41
2021/09/17 11:52:13;;;;;;;;;;;;;;;23.19;48.96;100401.03;5143811;27;976;-34
2021/09/17 11:54:38;;;;;;;;;;;;;;;22.80;50.15;100397.09;5135405;28;822;-39
2021/09/17 11:57:04;;;;;;;;;;;;;;;22.68;50.04;100391.19;5136152;28;1909;-40
2021/09/17 11:59:30;;;;;;;;;;;;;;;22.37;50.76;100389.00;5135847;28;865;-34
2021/09/17 12:02:13;;;;;;;;;;;;;;;22.30;50.68;100396.00;5135826;28;867;-34
2021/09/17 12:04:40;;;;;;;;;;;;;;;22.18;51.42;100388.22;5134824;28;1117;-35
2021/09/17 12:07:05;;;;;;;;;;;;;;;24.92;46.92;100383.16;5135507;28;965;-39
2021/09/17 12:09:31;;;;;;;;;;;;;;;26.86;41.54;100377.44;5135605;28;791;-34
2021/09/17 12:11:56;;;;;;;;;;;;;;;27.67;39.42;100374.72;5117695;28;790;-40
2021/09/17 12:14:22;;;;;;;;;;;;;;;28.15;39.21;100367.78;5116578;28;793;-34
2021/09/17 12:16:48;;;;;;;;;;;;;;;28.29;38.65;100366.00;5135828;28;1964;-39
2021/09/17 12:19:16;;;;;;;;;;;;;;;28.49;38.57;100365.28;5135877;28;751;-35
2021/09/17 12:22:00;;;;;;;;;;;;;;;28.64;38.57;100359.72;5134855;28;1584;-36
2021/09/17 12:24:29;;;;;;;;;;;;;;;28.77;38.17;100366.19;5135253;28;798;-38
2021/09/17 12:26:54;;;;;;;;;;;;;;;28.84;38.14;100377.88;5135891;28;800;-39
2021/09/17 12:29:20;;;;;;;;;;;;;;;28.85;38.74;100383.09;5134993;28;740;-33
2021/09/17 12:31:45;;;;;;;;;;;;;;;28.90;38.20;100377.06;5135802;28;782;-35
2021/09/17 12:34:16;;;;;;;;;;;;;;;28.96;38.96;100378.13;5138248;27;846;-33
2021/09/17 12:36:48;;;;;;;;;;;;;;;28.94;38.18;100374.78;5137930;27;1965;-37
2021/09/17 12:39:13;;;;;;;;;;;;;;;29.03;37.99;100376.28;5139574;27;740;-35
2021/09/17 12:41:38;;;;;;;;;;;;;;;28.99;39.06;100369.63;5139169;27;859;-40
2021/09/17 12:44:13;;;;;;;;;;;;;;;29.03;37.91;100365.44;5138739;27;803;-37
2021/09/17 12:46:42;;;;;;;;;;;;;;;28.81;38.52;100368.28;5138695;27;743;-39
2021/09/17 12:49:08;;;;;;;;;;;;;;;28.96;38.64;100370.00;5145176;27;1093;-33